Flight Track Log - Related Links

Times and Time Zones

All times are in EDT time to prevent confusion due to time zone crossing. See the EJA839 flight status page for this flight to view local times or setup timezone preferences in your user account.

Time Position Orientation Groundspeed Altitude Reporting Facility
EDT Latitude Longitude Course Direction KTS MPH feet Rate Location/Type
Thu 07:48:34 PM 34.0000 -118.4667 270° West 163 188 700  Level Southern California TRACON
Thu 07:49:34 PM 34.0000 -118.5333 270° West 217 250 2,300 1,680 Climbing Southern California TRACON
Thu 07:49:49 PM 33.9950 -118.5583 256° West 221 254 2,800 2,104 Climbing Los Angeles Center
Thu 07:50:51 PM 33.9961 -118.6494 271° West 250 288 5,000 2,304 Climbing Los Angeles Center
Thu 07:51:54 PM 34.0539 -118.6722 342° North 256 295 7,600 2,496 Climbing Los Angeles Center
Thu 07:52:56 PM 34.1269 -118.6564 10° North 248 285 10,200 2,274 Climbing Los Angeles Center
Thu 07:53:58 PM 34.2003 -118.6411 10° North 260 299 12,300 2,226 Climbing Los Angeles Center
Thu 07:55:00 PM 34.2772 -118.6519 353° North 278 320 14,800 2,129 Climbing Los Angeles Center
Thu 07:56:02 PM 34.3575 -118.6833 342° North 298 343 16,700 1,839 Climbing Los Angeles Center
Thu 07:57:04 PM 34.4439 -118.7167 342° North 320 368 18,600 1,597 Climbing Los Angeles Center
Thu 07:58:06 PM 34.5300 -118.7503 342° North 326 375 20,000 1,258 Climbing Los Angeles Center
Thu 07:59:08 PM 34.6392 -118.7964 341° North 349 402 21,200 1,306 Climbing Los Angeles Center
Thu 08:00:10 PM 34.7297 -118.8331 342° North 345 397 22,700 1,355 Climbing Los Angeles Center
Thu 08:01:12 PM 34.8172 -118.8786 337° Northwest 349 402 24,000 1,008 Climbing Los Angeles Center
Thu 08:02:15 PM 34.8964 -118.9531 322° Northwest 356 410 24,800 1,104 Climbing Los Angeles Center
Thu 08:03:17 PM 34.9731 -119.0278 321° Northwest 354 407 26,300 1,452 Climbing Los Angeles Center
Thu 08:04:19 PM 35.0492 -119.1025 321° Northwest 352 405 27,800 1,645 Climbing Los Angeles Center
Thu 08:05:21 PM 35.1408 -119.1900 322° Northwest 351 404 29,700 750 Climbing Los Angeles Center
Thu 08:07:15 PM 35.2825 -119.3294 321° Northwest 379 436 30,000 103 Climbing Oakland Center
Thu 08:08:16 PM 35.3661 -119.4122 321° Northwest 388 447 30,000  Level Oakland Center
Thu 08:09:17 PM 35.4525 -119.4978 321° Northwest 399 459 30,000  Level Oakland Center
Thu 08:10:19 PM 35.5369 -119.5811 321° Northwest 395 455 30,000  Level Oakland Center
Thu 08:11:20 PM 35.6383 -119.6836 321° Northwest 396 456 30,000  Level Oakland Center
Thu 08:12:21 PM 35.7228 -119.7672 321° Northwest 394 453 30,000  Level Oakland Center
Thu 08:13:23 PM 35.8094 -119.8522 322° Northwest 400 460 30,000  Level Oakland Center
Thu 08:14:24 PM 35.8936 -119.9381 320° Northwest 397 457 30,000 -295 Level Oakland Center
Thu 08:15:25 PM 35.9844 -120.0128 326° Northwest 405 466 29,400 -787 Descending Oakland Center
Thu 08:16:26 PM 36.0822 -120.0694 335° Northwest 394 453 28,400 -829 Descending Oakland Center
Thu 08:17:28 PM 36.1783 -120.1297 333° Northwest 389 448 27,700 -927 Descending Oakland Center
Thu 08:18:29 PM 36.2928 -120.2006 333° Northwest 386 444 26,500 -836 Descending Oakland Center
Thu 08:19:30 PM 36.3867 -120.2589 333° Northwest 379 436 26,000 -244 Descending Oakland Center
Thu 08:20:32 PM 36.4764 -120.3153 333° Northwest 363 418 26,000 -49 Level Oakland Center
Thu 08:21:33 PM 36.5672 -120.3722 333° Northwest 367 422 25,900 -541 Descending Oakland Center
Thu 08:22:34 PM 36.6614 -120.4297 334° Northwest 376 433 24,900 -1,024 Descending Oakland Center
Thu 08:23:36 PM 36.7528 -120.4872 333° Northwest 371 427 23,800 -1,073 Descending Oakland Center
Thu 08:24:37 PM 36.8394 -120.5428 333° Northwest 365 420 22,700 -1,377 Descending Oakland Center
Thu 08:25:38 PM 36.9467 -120.6114 333° Northwest 358 412 21,000 -1,512 Descending Oakland Center
Thu 08:26:40 PM 37.0333 -120.6650 334° Northwest 347 399 19,600 -1,415 Descending Oakland Center
Thu 08:27:41 PM 37.1194 -120.7197 333° Northwest 345 397 18,100 -1,310 Descending Oakland Center
Thu 08:28:07 PM 37.1667 -120.7500 333° Northwest 350 403 17,700 -1,310 Descending Northern Cal TRACON
Thu 08:29:08 PM 37.2500 -120.8000 334° Northwest 319 367 16,200 -1,722 Descending Northern Cal TRACON
Thu 08:30:02 PM 37.3167 -120.8500 329° Northwest 330 380 14,400 -1,546 Descending Northern Cal TRACON
Thu 08:30:45 PM 37.3506 -120.8997 311° West 332 382 13,700 -981 Descending Oakland Center
Thu 08:31:46 PM 37.4125 -120.9878 312° West 334 384 12,700 -1,091 Descending Oakland Center
Thu 08:32:02 PM 37.4333 -121.0167 312° West 330 380 12,300 -1,026 Descending Northern Cal TRACON
Thu 08:33:02 PM 37.4833 -121.1000 307° West 323 372 11,400 -952 Descending Northern Cal TRACON
Thu 08:34:08 PM 37.5500 -121.2000 310° West 288 331 10,300 -1,100 Descending Northern Cal TRACON
Thu 08:35:02 PM 37.6000 -121.2500 322° Northwest 276 318 9,200 -1,474 Descending Northern Cal TRACON
Thu 08:36:02 PM 37.6167 -121.3500 282° West 273 314 7,500 -1,400 Descending Northern Cal TRACON
Thu 08:37:02 PM 37.6500 -121.4333 297° West 273 314 6,400 -1,050 Descending Northern Cal TRACON
Thu 08:38:02 PM 37.6667 -121.5333 282° West 260 299 5,400 -1,100 Descending Northern Cal TRACON
Thu 08:39:02 PM 37.6833 -121.6167 284° West 233 268 4,200 -1,350 Descending Northern Cal TRACON
Thu 08:40:02 PM 37.7000 -121.6833 288° West 222 255 2,700 -1,150 Descending Northern Cal TRACON
Thu 08:41:02 PM 37.7000 -121.7500 270° West 175 201 1,900 -650 Descending Northern Cal TRACON
Thu 08:42:02 PM 37.7000 -121.8000 270° West 146 168 1,400 -500 Descending Northern Cal TRACON

Login

Don't have an account? Register now (free) for customized features, flight alerts, and more!